aviador You're here:

YPAD Decoded Metar

ADELAIDE in AUSTRALIA
Report Time2017-08-16 19:00:00
UTC Time2017-08-16 19:33:08
Flight Rules mvfr MVFR
Wind310° at 20 kt
W.Decomp.*RWY 30: 20.0 kt HW 0.7 kt RCW
RWY 23: 6.2 kt HW 19.0 kt RCW
W.Rank310° ranks 27
Current wind is above 310° avg. (10.0)
Visibility9999 m
Phenomena:Shower Rain
Clouds:Few 014 Hf
Broken 024 Hf
Expected CloudBase > 1,600 ft AGL from Temp-Dew spread
Ceiling2,400 ft
Temp13°C (ISA -2)
Dew Point09°C (77% RH)
AAT5.6°C
QNH1006 hPa
Density Alt171 ft
Elevation13 ft
Report Wrong Elevation
Raw Report
METAR YPAD 161900Z 31020KT 9999 FEW014 BKN024 13/09 Q1006
INTER 1900/2200 31025G40KT 5000 SHRA BKN015=

Extra information for YPAD:More info

Metar Taf Metar & Taf Last 4 Metars F.Rules Stats Wind Profile Meteogram Temp Stats Airport Information Weather charts Add Link Nearby VenuesMetar ALERT Operation Metar Decoded Social comments

Adelaide Airport Webcam